createdAt,value
2023-02-22T00:02:16.760Z,100970.53
2023-02-22T00:04:44.271Z,100967.78
2023-02-22T00:07:11.749Z,100967.78
2023-02-22T00:09:39.101Z,100968.59
2023-02-22T00:12:06.381Z,100967.97
2023-02-22T00:14:33.770Z,100969.63
2023-02-22T00:17:01.312Z,100960.94
2023-02-22T00:19:31.098Z,100966.97
2023-02-22T00:21:58.798Z,100960.94
2023-02-22T00:24:26.303Z,100960.13
2023-02-22T00:26:57.223Z,100958.44
2023-02-22T00:29:26.002Z,100963.66
2023-02-22T00:31:54.330Z,100976.69
2023-02-22T00:34:24.358Z,100982.13
2023-02-22T00:36:51.847Z,100975.28
2023-02-22T00:39:19.613Z,100979.91
2023-02-22T00:41:47.203Z,100984.34
2023-02-22T00:44:14.956Z,100981.81
2023-02-22T00:46:42.463Z,100985.97
2023-02-22T00:49:09.974Z,100973.72
2023-02-22T00:51:37.587Z,100978.84
2023-02-22T00:54:05.548Z,100979.97
2023-02-22T00:56:37.428Z,100973.91
2023-02-22T00:59:04.914Z,100969.44
2023-02-22T01:01:32.341Z,100971.13
2023-02-22T01:03:59.773Z,100975.56
2023-02-22T01:06:27.294Z,100975.59
2023-02-22T01:08:55.174Z,100966.13
2023-02-22T01:11:24.791Z,100966.16
2023-02-22T01:13:54.244Z,100969.78
2023-02-22T01:16:22.360Z,100965.38
2023-02-22T01:18:50.233Z,100974.22
2023-02-22T01:21:18.082Z,100972.50
2023-02-22T01:23:46.325Z,100969.03
2023-02-22T01:26:13.926Z,100971.59
2023-02-22T01:28:41.495Z,100967.34
2023-02-22T01:31:09.095Z,100976.06
2023-02-22T01:33:36.502Z,100972.66
2023-02-22T01:36:03.852Z,100969.22
2023-02-22T01:38:31.288Z,100970.88
2023-02-22T01:40:58.616Z,100972.59
2023-02-22T01:43:30.958Z,100974.41
2023-02-22T01:46:04.199Z,100967.66
2023-02-22T01:48:45.855Z,100973.59
2023-02-22T01:51:37.708Z,100972.59
2023-02-22T01:54:11.448Z,100969.19
2023-02-22T01:56:46.692Z,100972.72
2023-02-22T01:59:15.022Z,100969.34
2023-02-22T02:01:45.725Z,100986.09
2023-02-22T02:04:25.712Z,100983.53
2023-02-22T02:06:59.742Z,100990.41
2023-02-22T02:09:52.184Z,100987.00
2023-02-22T02:12:23.429Z,100984.44
2023-02-22T02:14:52.151Z,100983.63
2023-02-22T02:17:23.837Z,100979.34
2023-02-22T02:20:07.280Z,100980.25
2023-02-22T02:22:43.959Z,100982.34
2023-02-22T02:25:32.366Z,100981.63
2023-02-22T02:28:15.390Z,100976.34
2023-02-22T02:31:10.182Z,100967.66
2023-02-22T02:33:37.587Z,100969.41
2023-02-22T02:36:20.266Z,100966.88
2023-02-22T02:38:59.437Z,100972.00
2023-02-22T02:41:56.901Z,100957.25
2023-02-22T02:44:55.906Z,100956.44
2023-02-22T02:47:33.052Z,100951.13
2023-02-22T02:50:03.037Z,100957.28
2023-02-22T02:52:32.970Z,100965.84
2023-02-22T02:55:03.487Z,100945.09
2023-02-22T02:57:30.935Z,100949.41
2023-02-22T03:00:00.398Z,100952.03
2023-02-22T03:03:05.618Z,100951.09
2023-02-22T03:05:52.721Z,100952.00
2023-02-22T03:08:50.581Z,100945.16
2023-02-22T03:11:29.435Z,100941.50
2023-02-22T03:14:20.089Z,100943.34
2023-02-22T03:17:06.083Z,100941.72
2023-02-22T03:19:45.721Z,100938.28
2023-02-22T03:22:17.672Z,100939.03
2023-02-22T03:25:02.276Z,100939.06
2023-02-22T03:27:43.561Z,100937.34
2023-02-22T03:30:19.893Z,100938.34
2023-02-22T03:32:50.995Z,100926.13
2023-02-22T03:35:25.945Z,100926.16
2023-02-22T03:37:57.380Z,100920.91
2023-02-22T03:40:45.462Z,100920.94
2023-02-22T03:43:19.040Z,100926.97
2023-02-22T03:45:50.621Z,100920.03
2023-02-22T03:48:30.434Z,100919.19
2023-02-22T03:51:02.910Z,100914.94
2023-02-22T03:53:34.374Z,100912.47
2023-02-22T03:56:05.988Z,100910.59
2023-02-22T03:58:36.956Z,100912.34
2023-02-22T04:01:05.058Z,100915.84
2023-02-22T04:03:32.573Z,100911.38
2023-02-22T04:06:00.161Z,100910.53
2023-02-22T04:08:27.660Z,100906.25
2023-02-22T04:10:55.055Z,100912.25
2023-02-22T04:13:27.484Z,100914.13
2023-02-22T04:15:55.430Z,100914.91
2023-02-22T04:18:23.114Z,100914.06
2023-02-22T04:20:51.790Z,100914.81
2023-02-22T04:23:42.000Z,100908.72
2023-02-22T04:26:10.006Z,100901.75
2023-02-22T04:28:37.486Z,100917.38
2023-02-22T04:31:15.725Z,100918.25
2023-02-22T04:33:44.052Z,100912.19
2023-02-22T04:36:16.241Z,100913.94
2023-02-22T04:38:45.388Z,100918.41
2023-02-22T04:41:13.647Z,100925.34
2023-02-22T04:43:42.439Z,100922.72
2023-02-22T04:46:17.857Z,100913.25
2023-02-22T04:48:45.901Z,100916.75
2023-02-22T04:51:15.309Z,100919.41
2023-02-22T04:53:54.110Z,100920.22
2023-02-22T04:56:21.697Z,100929.81
2023-02-22T04:58:49.956Z,100921.09
2023-02-22T05:01:17.816Z,100919.38
2023-02-22T05:03:47.213Z,100919.44
2023-02-22T05:06:14.810Z,100929.13
2023-02-22T05:08:42.831Z,100922.19
2023-02-22T05:11:10.274Z,100917.84
2023-02-22T05:13:37.691Z,100915.38
2023-02-22T05:16:05.568Z,100924.97
2023-02-22T05:18:33.074Z,100921.38
2023-02-22T05:21:00.610Z,100921.34
2023-02-22T05:23:28.005Z,100921.47
2023-02-22T05:25:55.394Z,100917.22
2023-02-22T05:28:22.726Z,100923.00
2023-02-22T05:30:50.807Z,100922.06
2023-02-22T05:33:18.404Z,100920.31
2023-02-22T05:35:46.415Z,100923.78
2023-02-22T05:38:15.326Z,100910.84
2023-02-22T05:40:43.513Z,100923.84
2023-02-22T05:43:11.021Z,100913.44
2023-02-22T05:45:38.500Z,100916.88
2023-02-22T05:48:06.034Z,100915.94
2023-02-22T05:50:34.124Z,100911.72
2023-02-22T05:53:02.379Z,100912.53
2023-02-22T05:55:29.851Z,100912.53
2023-02-22T05:57:57.260Z,100919.47
2023-02-22T06:00:27.949Z,100915.13
2023-02-22T06:03:04.364Z,100908.19
2023-02-22T06:05:32.189Z,100921.25
2023-02-22T06:08:02.227Z,100903.88
2023-02-22T06:10:30.181Z,100911.78
2023-02-22T06:12:59.462Z,100909.31
2023-02-22T06:15:28.432Z,100912.00
2023-02-22T06:17:57.929Z,100908.59
2023-02-22T06:20:28.131Z,100905.09
2023-02-22T06:22:57.752Z,100910.19
2023-02-22T06:25:28.039Z,100914.53
2023-02-22T06:27:55.553Z,100907.53
2023-02-22T06:30:24.016Z,100901.47
2023-02-22T06:32:51.519Z,100901.41
2023-02-22T06:35:19.324Z,100914.56
2023-02-22T06:37:48.452Z,100909.28
2023-02-22T06:40:16.098Z,100913.69
2023-02-22T06:42:44.001Z,100906.81
2023-02-22T06:45:11.539Z,100908.53
2023-02-22T06:47:40.705Z,100914.53
2023-02-22T06:50:18.890Z,100916.22
2023-02-22T06:52:48.089Z,100912.75
2023-02-22T06:55:24.517Z,100918.72
2023-02-22T06:57:52.437Z,100917.84
2023-02-22T07:00:22.366Z,100917.88
2023-02-22T07:02:49.800Z,100916.22
2023-02-22T07:05:18.858Z,100923.22
2023-02-22T07:07:47.285Z,100928.41
2023-02-22T07:10:24.528Z,100930.22
2023-02-22T07:12:52.652Z,100934.56
2023-02-22T07:15:23.735Z,100938.97
2023-02-22T07:17:52.430Z,100938.06
2023-02-22T07:20:21.722Z,100945.03
2023-02-22T07:22:49.630Z,100952.88
2023-02-22T07:25:17.583Z,100952.84
2023-02-22T07:27:45.891Z,100952.81
2023-02-22T07:30:25.466Z,100951.09
2023-02-22T07:32:55.282Z,100952.81
2023-02-22T07:35:24.415Z,100951.06
2023-02-22T07:37:54.060Z,100948.44
2023-02-22T07:40:24.968Z,100952.00
2023-02-22T07:42:53.336Z,100959.88
2023-02-22T07:45:22.140Z,100957.44
2023-02-22T07:47:49.612Z,100957.44
2023-02-22T07:50:18.447Z,100960.03
2023-02-22T07:52:51.384Z,100960.03
2023-02-22T07:55:21.548Z,100960.09
2023-02-22T07:57:51.561Z,100955.84
2023-02-22T08:00:32.142Z,100961.22
2023-02-22T08:03:01.244Z,100960.56
2023-02-22T08:05:30.738Z,100961.50
2023-02-22T08:07:58.627Z,100965.06
2023-02-22T08:10:27.234Z,100965.16
2023-02-22T08:12:56.073Z,100966.09
2023-02-22T08:15:26.538Z,100967.84
2023-02-22T08:17:55.526Z,100978.34
2023-02-22T08:20:23.082Z,100972.41
2023-02-22T08:22:51.500Z,100977.59
2023-02-22T08:25:21.133Z,100974.16
2023-02-22T08:27:49.130Z,100973.34
2023-02-22T08:30:23.800Z,100977.56
2023-02-22T08:32:51.814Z,100983.78
2023-02-22T08:35:22.585Z,100976.81
2023-02-22T08:37:55.002Z,100979.50
2023-02-22T08:40:24.965Z,100978.78
2023-02-22T08:42:52.633Z,100976.31
2023-02-22T08:45:20.878Z,100975.56
2023-02-22T08:47:48.524Z,100977.53
2023-02-22T08:50:21.858Z,100975.91
2023-02-22T08:52:59.448Z,100980.38
2023-02-22T08:55:34.426Z,100974.44
2023-02-22T08:58:03.476Z,100970.19
2023-02-22T09:00:33.428Z,100980.72
2023-02-22T09:03:02.965Z,100977.28
2023-02-22T09:05:31.665Z,100970.34
2023-02-22T09:08:00.402Z,100976.41
2023-02-22T09:10:33.920Z,100973.81
2023-02-22T09:13:02.576Z,100966.84
2023-02-22T09:15:30.527Z,100974.66
2023-02-22T09:17:58.926Z,100966.81
2023-02-22T09:20:27.769Z,100972.91
2023-02-22T09:22:55.642Z,100970.19
2023-02-22T09:25:23.740Z,100977.09
2023-02-22T09:27:52.639Z,100974.47
2023-02-22T09:30:25.125Z,100975.31
2023-02-22T09:32:56.270Z,100970.97
2023-02-22T09:35:37.068Z,100979.59
2023-02-22T09:38:06.582Z,100968.34
2023-02-22T09:40:45.262Z,100976.97
2023-02-22T09:43:40.752Z,100978.75
2023-02-22T09:46:12.305Z,100982.16
2023-02-22T09:49:19.594Z,100981.34
2023-02-22T09:52:04.778Z,100981.34
2023-02-22T09:54:38.999Z,100979.47
2023-02-22T09:57:12.949Z,100977.75
2023-02-22T09:59:46.938Z,100980.44
2023-02-22T10:02:37.088Z,100980.47
2023-02-22T10:05:20.240Z,100979.59
2023-02-22T10:07:54.459Z,100983.03
2023-02-22T10:10:25.007Z,100982.19
2023-02-22T10:13:23.958Z,100990.00
2023-02-22T10:16:05.288Z,100988.38
2023-02-22T10:19:11.148Z,100987.56
2023-02-22T10:22:06.947Z,100977.28
2023-02-22T10:24:38.512Z,100986.84
2023-02-22T10:27:34.337Z,100982.50
2023-02-22T10:30:33.948Z,100983.41
2023-02-22T10:33:20.447Z,100983.44
2023-02-22T10:35:48.853Z,100987.84
2023-02-22T10:38:20.817Z,100987.88
2023-02-22T10:40:54.787Z,100982.66
2023-02-22T10:43:23.589Z,100988.75
2023-02-22T10:45:56.131Z,100990.53
2023-02-22T10:48:26.515Z,100990.41
2023-02-22T10:50:59.817Z,100992.13
2023-02-22T10:53:28.654Z,100985.97
2023-02-22T10:56:09.818Z,100993.75
2023-02-22T10:59:02.493Z,100991.09
2023-02-22T11:01:32.925Z,100992.78
2023-02-22T11:04:07.142Z,100991.81
2023-02-22T11:06:35.233Z,100987.47
2023-02-22T11:09:13.419Z,100991.72
2023-02-22T11:11:44.125Z,100989.06
2023-02-22T11:14:13.691Z,100989.91
2023-02-22T11:16:51.351Z,100988.09
2023-02-22T11:19:26.039Z,100994.00
2023-02-22T11:22:09.835Z,100999.16
2023-02-22T11:24:58.183Z,100993.94
2023-02-22T11:27:33.358Z,100990.63
2023-02-22T11:30:18.252Z,100988.84
2023-02-22T11:32:49.571Z,100986.31
2023-02-22T11:35:38.849Z,100981.97
2023-02-22T11:38:12.226Z,100985.53
2023-02-22T11:40:40.237Z,100982.97
2023-02-22T11:43:18.977Z,100980.50
2023-02-22T11:46:06.428Z,100973.59
2023-02-22T11:48:39.529Z,100976.22
2023-02-22T11:51:14.502Z,100978.78
2023-02-22T11:54:11.291Z,100975.31
2023-02-22T11:56:48.329Z,100978.75
2023-02-22T11:59:47.013Z,100978.75
2023-02-22T12:02:37.471Z,100970.94
2023-02-22T12:05:31.202Z,100971.94
2023-02-22T12:08:28.200Z,100981.59
2023-02-22T12:11:35.678Z,100979.31
2023-02-22T12:14:24.357Z,100976.00
2023-02-22T12:17:06.660Z,100972.59
2023-02-22T12:19:49.403Z,100973.47
2023-02-22T12:22:23.195Z,100968.22
2023-02-22T12:25:09.843Z,100967.38
2023-02-22T12:27:43.705Z,100977.06
2023-02-22T12:30:19.354Z,100971.84
2023-02-22T12:32:52.795Z,100975.41
2023-02-22T12:35:28.070Z,100985.09
2023-02-22T12:38:08.298Z,100978.13
2023-02-22T12:40:47.327Z,100976.41
2023-02-22T12:43:37.052Z,100984.25
2023-02-22T12:46:31.930Z,100978.88
2023-02-22T12:49:23.416Z,100979.72
2023-02-22T12:52:21.384Z,100979.72
2023-02-22T12:54:59.498Z,100978.72
2023-02-22T12:57:35.914Z,100980.44
2023-02-22T13:00:23.248Z,100978.72
2023-02-22T13:03:02.477Z,100981.44
2023-02-22T13:05:37.005Z,100981.53
2023-02-22T13:08:58.504Z,100978.13
2023-02-22T13:11:34.166Z,100972.03
2023-02-22T13:14:39.116Z,100976.41
2023-02-22T13:17:43.137Z,100972.06
2023-02-22T13:20:18.506Z,100977.28
2023-02-22T13:23:03.552Z,100981.63
2023-02-22T13:25:41.431Z,100973.78
2023-02-22T13:28:26.496Z,100980.66
2023-02-22T13:31:05.892Z,100977.19
2023-02-22T13:33:45.273Z,100975.53
2023-02-22T13:36:15.905Z,100980.63
2023-02-22T13:39:39.203Z,100978.81
2023-02-22T13:42:44.576Z,100982.13
2023-02-22T13:45:29.394Z,100976.84
2023-02-22T13:48:24.815Z,100979.53
2023-02-22T13:51:06.764Z,100979.59
2023-02-22T13:53:56.037Z,100977.09
2023-02-22T13:56:25.962Z,100970.13
2023-02-22T13:58:58.300Z,100978.84
2023-02-22T14:01:47.964Z,100979.72
2023-02-22T14:04:23.711Z,100982.22
2023-02-22T14:06:51.473Z,100977.94
2023-02-22T14:09:57.743Z,100983.06
2023-02-22T14:12:31.619Z,101002.28
2023-02-22T14:15:28.109Z,101007.38
2023-02-22T14:18:02.050Z,101000.25
2023-02-22T14:20:36.176Z,101011.28
2023-02-22T14:23:34.183Z,101004.97
2023-02-22T14:26:20.188Z,101010.75
2023-02-22T14:29:00.794Z,101005.53
2023-02-22T14:31:37.426Z,100999.59
2023-02-22T14:34:16.054Z,100998.75
2023-02-22T14:37:07.699Z,101000.63
2023-02-22T14:39:45.183Z,100990.28
2023-02-22T14:42:33.271Z,100992.09
2023-02-22T14:45:17.491Z,101001.88
2023-02-22T14:47:50.193Z,101002.91
2023-02-22T14:50:45.302Z,101003.94
2023-02-22T14:53:12.759Z,100998.72
2023-02-22T14:55:42.191Z,101003.13
2023-02-22T14:58:18.952Z,101009.84
2023-02-22T15:00:50.007Z,101009.69
2023-02-22T15:03:37.403Z,101005.25
2023-02-22T15:06:18.636Z,101012.19
2023-02-22T15:08:49.876Z,101005.19
2023-02-22T15:11:23.998Z,101012.03
2023-02-22T15:13:54.176Z,101011.19
2023-02-22T15:16:23.491Z,101018.00
2023-02-22T15:18:55.700Z,101020.56
2023-02-22T15:21:28.499Z,101021.44
2023-02-22T15:24:00.090Z,101014.44
2023-02-22T15:26:37.393Z,101025.81
2023-02-22T15:29:25.667Z,101022.38
2023-02-22T15:31:53.994Z,101029.22
2023-02-22T15:34:28.206Z,101034.44
2023-02-22T15:36:58.418Z,101030.91
2023-02-22T15:39:34.655Z,101036.25
2023-02-22T15:42:05.660Z,101035.28
2023-02-22T15:44:53.983Z,101030.03
2023-02-22T15:47:27.566Z,101034.25
2023-02-22T15:50:23.998Z,101039.34
2023-02-22T15:53:27.250Z,101032.22
2023-02-22T15:56:01.000Z,101035.69
2023-02-22T15:58:30.117Z,101034.16
2023-02-22T16:01:03.956Z,101034.97
2023-02-22T16:03:53.695Z,101028.00
2023-02-22T16:06:40.516Z,101030.66
2023-02-22T16:09:17.368Z,101036.78
2023-02-22T16:11:47.129Z,101041.22
2023-02-22T16:14:40.111Z,101036.88
2023-02-22T16:17:35.429Z,101036.88
2023-02-22T16:20:19.212Z,101034.31
2023-02-22T16:22:51.662Z,101036.13
2023-02-22T16:25:19.277Z,101034.41
2023-02-22T16:27:47.931Z,101035.38
2023-02-22T16:30:24.554Z,101037.75
2023-02-22T16:32:55.681Z,101041.16
2023-02-22T16:35:29.085Z,101055.09
2023-02-22T16:38:02.382Z,101048.09
2023-02-22T16:40:35.998Z,101058.38
2023-02-22T16:43:08.018Z,101053.06
2023-02-22T16:45:36.200Z,101053.19
2023-02-22T16:48:19.341Z,101051.34
2023-02-22T16:50:50.862Z,101053.22
2023-02-22T16:53:21.527Z,101051.38
2023-02-22T16:55:50.908Z,101055.72
2023-02-22T16:58:19.413Z,101050.38
2023-02-22T17:00:46.860Z,101053.00
2023-02-22T17:03:16.859Z,101056.31
2023-02-22T17:05:44.581Z,101048.66
2023-02-22T17:08:12.174Z,101053.78
2023-02-22T17:10:39.743Z,101056.03
2023-02-22T17:13:21.858Z,101057.53
2023-02-22T17:15:50.593Z,101068.75
2023-02-22T17:18:23.007Z,101065.22
2023-02-22T17:20:52.541Z,101072.94
2023-02-22T17:23:20.772Z,101066.59
2023-02-22T17:25:55.536Z,101057.47
2023-02-22T17:28:24.801Z,101071.97
2023-02-22T17:30:54.644Z,101075.28
2023-02-22T17:33:27.405Z,101083.97
2023-02-22T17:35:57.886Z,101088.94
2023-02-22T17:38:29.119Z,101087.09
2023-02-22T17:40:58.043Z,101085.63
2023-02-22T17:43:27.962Z,101090.53
2023-02-22T17:45:56.494Z,101099.19
2023-02-22T17:48:24.680Z,101094.75
2023-02-22T17:50:52.878Z,101096.53
2023-02-22T17:53:25.076Z,101100.91
2023-02-22T17:55:53.143Z,101103.50
2023-02-22T17:58:22.316Z,101102.50
2023-02-22T18:00:51.010Z,101101.59
2023-02-22T18:03:25.919Z,101104.31
2023-02-22T18:05:57.731Z,101116.38
2023-02-22T18:08:27.607Z,101113.06
2023-02-22T18:10:58.318Z,101117.31
2023-02-22T18:13:27.863Z,101124.50
2023-02-22T18:16:05.884Z,101113.88
2023-02-22T18:18:34.044Z,101125.97
2023-02-22T18:21:02.020Z,101123.97
2023-02-22T18:23:31.611Z,101121.31
2023-02-22T18:26:10.751Z,101124.75
2023-02-22T18:28:39.779Z,101123.78
2023-02-22T18:31:15.935Z,101128.19
2023-02-22T18:33:45.416Z,101131.50
2023-02-22T18:36:14.446Z,101131.41
2023-02-22T18:38:43.769Z,101121.81
2023-02-22T18:41:14.439Z,101129.56
2023-02-22T18:43:42.955Z,101129.59
2023-02-22T18:46:16.420Z,101127.84
2023-02-22T18:48:45.026Z,101129.63
2023-02-22T18:51:14.444Z,101132.94
2023-02-22T18:53:47.722Z,101136.38
2023-02-22T18:56:22.567Z,101136.31
2023-02-22T18:58:54.732Z,101142.47
2023-02-22T19:01:22.856Z,101141.69
2023-02-22T19:03:51.943Z,101152.09
2023-02-22T19:06:22.720Z,101145.97
2023-02-22T19:08:51.094Z,101151.22
2023-02-22T19:11:22.013Z,101158.91
2023-02-22T19:13:52.429Z,101153.75
2023-02-22T19:16:22.416Z,101154.47
2023-02-22T19:18:52.678Z,101148.44
2023-02-22T19:21:20.901Z,101150.16
2023-02-22T19:23:49.499Z,101150.00
2023-02-22T19:26:20.028Z,101156.03
2023-02-22T19:28:48.221Z,101155.09
2023-02-22T19:31:19.689Z,101155.91
2023-02-22T19:33:51.424Z,101158.47
2023-02-22T19:36:20.489Z,101155.09
2023-02-22T19:38:48.036Z,101151.03
2023-02-22T19:41:18.526Z,101155.06
2023-02-22T19:43:51.745Z,101154.81
2023-02-22T19:46:21.359Z,101150.44
2023-02-22T19:48:49.930Z,101149.44
2023-02-22T19:51:19.820Z,101148.44
2023-02-22T19:53:47.620Z,101148.38
2023-02-22T19:56:20.755Z,101156.88
2023-02-22T19:58:50.238Z,101155.03
2023-02-22T20:01:23.411Z,101151.69
2023-02-22T20:03:56.478Z,101144.75
2023-02-22T20:06:28.279Z,101147.06
2023-02-22T20:08:56.660Z,101149.59
2023-02-22T20:11:24.999Z,101147.66
2023-02-22T20:13:52.557Z,101155.50
2023-02-22T20:16:20.007Z,101150.19
2023-02-22T20:18:48.596Z,101157.75
2023-02-22T20:21:22.521Z,101159.25
2023-02-22T20:23:50.827Z,101151.41
2023-02-22T20:26:22.459Z,101165.97
2023-02-22T20:28:50.873Z,101158.06
2023-02-22T20:31:19.765Z,101151.84
2023-02-22T20:33:49.458Z,101157.13
2023-02-22T20:36:18.687Z,101154.44
2023-02-22T20:38:46.116Z,101149.69
2023-02-22T20:41:20.217Z,101149.47
2023-02-22T20:43:52.832Z,101149.28
2023-02-22T20:46:20.396Z,101138.63
2023-02-22T20:48:47.911Z,101150.56
2023-02-22T20:51:16.184Z,101149.56
2023-02-22T20:53:45.079Z,101154.13
2023-02-22T20:56:14.391Z,101150.78
2023-02-22T20:58:42.513Z,101157.72
2023-02-22T21:01:12.256Z,101158.34
2023-02-22T21:03:43.741Z,101157.22
2023-02-22T21:06:15.479Z,101161.16
2023-02-22T21:08:44.391Z,101168.34
2023-02-22T21:11:14.287Z,101163.09
2023-02-22T21:13:42.490Z,101168.91
2023-02-22T21:16:17.501Z,101168.78
2023-02-22T21:18:45.550Z,101167.94
2023-02-22T21:21:13.501Z,101170.53
2023-02-22T21:23:41.507Z,101168.72
2023-02-22T21:26:16.712Z,101175.47
2023-02-22T21:28:52.123Z,101173.84
2023-02-22T21:31:23.649Z,101170.38
2023-02-22T21:33:54.839Z,101179.91
2023-02-22T21:36:26.447Z,101174.59
2023-02-22T21:38:59.524Z,101169.84
2023-02-22T21:41:31.180Z,101184.72
2023-02-22T21:43:59.947Z,101180.03
2023-02-22T21:46:29.352Z,101173.13
2023-02-22T21:48:58.810Z,101177.22
2023-02-22T21:51:32.262Z,101178.25
2023-02-22T21:54:03.380Z,101175.41
2023-02-22T21:56:34.384Z,101178.75
2023-02-22T21:59:18.872Z,101179.34
2023-02-22T22:01:50.186Z,101179.31
2023-02-22T22:04:21.407Z,101185.00
2023-02-22T22:06:53.619Z,101175.38
2023-02-22T22:09:23.780Z,101184.97
2023-02-22T22:11:54.134Z,101187.44
2023-02-22T22:14:24.142Z,101196.09
2023-02-22T22:16:54.539Z,101196.09
2023-02-22T22:19:23.068Z,101189.63
2023-02-22T22:21:53.525Z,101196.03
2023-02-22T22:24:22.850Z,101195.25
2023-02-22T22:26:54.904Z,101195.09
2023-02-22T22:29:24.692Z,101195.13
2023-02-22T22:31:53.167Z,101191.03
2023-02-22T22:34:21.033Z,101188.09
2023-02-22T22:36:48.626Z,101190.41
2023-02-22T22:39:16.208Z,101192.06
2023-02-22T22:41:44.563Z,101191.16
2023-02-22T22:44:15.511Z,101189.38
2023-02-22T22:46:43.848Z,101188.09
2023-02-22T22:49:13.738Z,101188.94
2023-02-22T22:51:42.674Z,101182.03
2023-02-22T22:54:11.088Z,101182.72
2023-02-22T22:56:38.961Z,101181.53
2023-02-22T22:59:09.744Z,101177.16
2023-02-22T23:01:40.724Z,101176.19
2023-02-22T23:04:11.834Z,101178.25
2023-02-22T23:06:42.380Z,101172.09
2023-02-22T23:09:34.788Z,101173.69
2023-02-22T23:12:16.662Z,101173.66
2023-02-22T23:14:45.445Z,101178.69
2023-02-22T23:17:16.285Z,101175.16
2023-02-22T23:19:45.355Z,101179.47
2023-02-22T23:22:14.522Z,101176.56
2023-02-22T23:24:44.624Z,101171.06
2023-02-22T23:27:12.840Z,101171.69
2023-02-22T23:29:42.267Z,101162.16
2023-02-22T23:32:10.418Z,101159.50
2023-02-22T23:34:41.844Z,101158.63
2023-02-22T23:37:10.875Z,101162.31
2023-02-22T23:39:38.830Z,101157.63
2023-02-22T23:42:09.010Z,101168.16
2023-02-22T23:44:36.764Z,101167.72
2023-02-22T23:47:04.518Z,101161.81
2023-02-22T23:49:36.041Z,101163.59
2023-02-22T23:52:05.276Z,101156.72
2023-02-22T23:54:36.615Z,101155.00
2023-02-22T23:57:05.494Z,101145.41
2023-02-22T23:59:34.001Z,101144.22
